createdAt,value
2023-02-28T00:03:51.795Z,5.53
2023-02-28T00:09:13.553Z,3.07
2023-02-28T00:14:35.316Z,4.43
2023-02-28T00:19:57.917Z,4.07
2023-02-28T00:25:25.001Z,5.23
2023-02-28T00:30:46.824Z,3.90
2023-02-28T00:36:11.129Z,5.13
2023-02-28T00:41:32.856Z,5.13
2023-02-28T00:46:55.124Z,3.10
2023-02-28T00:52:16.883Z,4.13
2023-02-28T00:57:38.622Z,4.23
2023-02-28T01:03:00.370Z,3.33
2023-02-28T01:08:22.815Z,4.90
2023-02-28T01:13:46.816Z,3.60
2023-02-28T01:19:09.087Z,3.70
2023-02-28T01:24:31.653Z,5.23
2023-02-28T01:29:54.183Z,3.90
2023-02-28T01:35:16.045Z,5.03
2023-02-28T01:40:37.800Z,3.63
2023-02-28T01:46:00.225Z,4.17
2023-02-28T01:51:35.626Z,5.17
2023-02-28T01:57:01.868Z,4.60
2023-02-28T02:02:25.094Z,5.53
2023-02-28T02:07:51.806Z,3.43
2023-02-28T02:13:35.097Z,3.77
2023-02-28T02:19:19.691Z,4.90
2023-02-28T02:24:50.588Z,6.80
2023-02-28T02:30:20.694Z,4.63
2023-02-28T02:35:58.861Z,6.13
2023-02-28T02:41:26.682Z,5.63
2023-02-28T02:46:51.323Z,7.40
2023-02-28T02:52:18.439Z,4.47
2023-02-28T02:57:52.968Z,5.93
2023-02-28T03:03:18.517Z,4.87
2023-02-28T03:08:40.285Z,6.73
2023-02-28T03:14:16.463Z,7.40
2023-02-28T03:19:52.485Z,5.53
2023-02-28T03:25:21.128Z,8.10
2023-02-28T03:31:21.366Z,3.47
2023-02-28T03:36:51.320Z,8.40
2023-02-28T03:42:19.355Z,5.00
2023-02-28T03:47:53.360Z,8.70
2023-02-28T03:53:34.197Z,5.50
2023-02-28T03:59:19.612Z,4.87
2023-02-28T04:04:46.087Z,5.60
2023-02-28T04:10:08.239Z,7.33
2023-02-28T04:15:30.009Z,6.53
2023-02-28T04:20:51.744Z,6.30
2023-02-28T04:26:13.457Z,7.13
2023-02-28T04:31:35.425Z,7.90
2023-02-28T04:37:11.907Z,9.53
2023-02-28T04:42:36.371Z,12.50
2023-02-28T04:47:58.131Z,6.27
2023-02-28T04:53:20.732Z,6.73
2023-02-28T04:58:43.651Z,6.17
2023-02-28T05:04:05.904Z,6.13
2023-02-28T05:09:28.114Z,6.03
2023-02-28T05:14:49.828Z,7.23
2023-02-28T05:20:19.528Z,6.53
2023-02-28T05:25:41.579Z,7.00
2023-02-28T05:31:03.341Z,7.70
2023-02-28T05:36:25.385Z,7.10
2023-02-28T05:41:47.083Z,5.60
2023-02-28T05:47:08.842Z,14.60
2023-02-28T05:52:33.531Z,7.33
2023-02-28T05:57:55.489Z,8.17
2023-02-28T06:03:17.322Z,6.70
2023-02-28T06:08:39.159Z,10.70
2023-02-28T06:14:01.947Z,7.53
2023-02-28T06:19:26.491Z,7.97
2023-02-28T06:24:48.583Z,8.20
2023-02-28T06:30:12.180Z,11.17
2023-02-28T06:35:33.917Z,10.03
2023-02-28T06:40:57.275Z,8.50
2023-02-28T06:46:19.367Z,7.80
2023-02-28T06:51:46.069Z,7.70
2023-02-28T06:57:08.389Z,10.83
2023-02-28T07:02:30.156Z,8.60
2023-02-28T07:07:53.584Z,7.10
2023-02-28T07:13:15.297Z,9.20
2023-02-28T07:18:38.454Z,10.10
2023-02-28T07:24:00.172Z,9.17
2023-02-28T07:29:22.105Z,8.27
2023-02-28T07:34:43.824Z,9.10
2023-02-28T07:40:12.392Z,9.47
2023-02-28T07:45:35.461Z,10.23
2023-02-28T07:50:58.531Z,10.93
2023-02-28T07:56:20.280Z,10.03
2023-02-28T08:01:42.025Z,10.50
2023-02-28T08:07:03.767Z,9.73
2023-02-28T08:12:25.511Z,13.23
2023-02-28T08:17:47.222Z,10.10
2023-02-28T08:23:08.938Z,9.93
2023-02-28T08:28:31.074Z,12.23
2023-02-28T08:33:54.074Z,10.37
2023-02-28T08:39:15.827Z,12.23
2023-02-28T08:44:37.552Z,11.03
2023-02-28T08:49:59.308Z,9.90
2023-02-28T08:55:21.014Z,8.70
2023-02-28T09:00:42.715Z,10.37
2023-02-28T09:06:05.696Z,10.90
2023-02-28T09:11:27.879Z,31.60
2023-02-28T09:16:49.915Z,13.27
2023-02-28T09:22:12.424Z,10.20
2023-02-28T09:27:34.129Z,10.43
2023-02-28T09:32:55.902Z,11.03
2023-02-28T09:38:18.611Z,11.43
2023-02-28T09:43:44.996Z,10.47
2023-02-28T09:49:13.297Z,10.90
2023-02-28T09:54:35.198Z,14.13
2023-02-28T10:00:10.661Z,14.50
2023-02-28T10:05:44.437Z,12.03
2023-02-28T10:11:08.861Z,11.03
2023-02-28T10:16:59.544Z,11.70
2023-02-28T10:22:30.386Z,15.37
2023-02-28T10:28:02.408Z,11.37
2023-02-28T10:33:35.166Z,13.03
2023-02-28T10:38:56.954Z,13.07
2023-02-28T10:44:22.303Z,10.50
2023-02-28T10:49:53.355Z,15.67
2023-02-28T10:55:26.046Z,10.33
2023-02-28T11:00:48.187Z,14.33
2023-02-28T11:06:17.856Z,12.73
2023-02-28T11:11:46.362Z,11.63
2023-02-28T11:17:36.377Z,11.37
2023-02-28T11:23:01.653Z,12.70
2023-02-28T11:28:34.450Z,9.87
2023-02-28T11:33:56.871Z,14.17
2023-02-28T11:39:20.083Z,12.50
2023-02-28T11:44:52.387Z,12.97
2023-02-28T11:50:51.109Z,10.57
2023-02-28T11:56:25.221Z,11.63
2023-02-28T12:01:56.064Z,10.47
2023-02-28T12:07:59.417Z,13.80
2023-02-28T12:13:37.651Z,10.23
2023-02-28T12:19:19.705Z,10.53
2023-02-28T12:25:14.239Z,14.43
2023-02-28T12:30:40.993Z,12.80
2023-02-28T12:36:11.101Z,10.53
2023-02-28T12:41:41.998Z,10.60
2023-02-28T12:47:06.704Z,10.63
2023-02-28T12:53:06.347Z,8.47
2023-02-28T12:58:44.278Z,9.13
2023-02-28T13:04:32.410Z,9.23
2023-02-28T13:10:00.258Z,13.17
2023-02-28T13:15:29.648Z,11.37
2023-02-28T13:20:52.248Z,10.57
2023-02-28T13:26:14.064Z,14.20
2023-02-28T13:32:07.855Z,9.37
2023-02-28T13:37:30.566Z,10.33
2023-02-28T13:42:53.524Z,9.77
2023-02-28T13:48:29.823Z,10.10
2023-02-28T13:54:11.066Z,13.07
2023-02-28T13:59:46.942Z,11.10
2023-02-28T14:05:18.048Z,10.23
2023-02-28T14:10:46.569Z,13.93
2023-02-28T14:16:09.944Z,10.70
2023-02-28T14:21:38.791Z,9.10
2023-02-28T14:27:18.711Z,11.50
2023-02-28T14:32:59.545Z,9.98
2023-02-28T14:38:27.027Z,17.00
2023-02-28T14:43:54.889Z,9.87
2023-02-28T14:49:29.042Z,8.90
2023-02-28T14:54:56.678Z,11.23
2023-02-28T15:00:33.523Z,8.80
2023-02-28T15:05:58.469Z,9.80
2023-02-28T15:11:23.165Z,9.70
2023-02-28T15:16:47.783Z,11.47
2023-02-28T15:22:17.849Z,10.45
2023-02-28T15:27:47.052Z,11.25
2023-02-28T15:33:12.381Z,9.63
2023-02-28T15:38:37.333Z,10.40
2023-02-28T15:44:35.805Z,10.75
2023-02-28T15:50:01.796Z,20.33
2023-02-28T15:55:28.414Z,11.87
2023-02-28T16:01:08.697Z,10.93
2023-02-28T16:06:38.210Z,11.63
2023-02-28T16:12:06.317Z,10.87
2023-02-28T16:17:30.834Z,10.93
2023-02-28T16:22:52.966Z,12.77
2023-02-28T16:28:26.367Z,11.97
2023-02-28T16:33:48.661Z,9.57
2023-02-28T16:39:10.385Z,10.73
2023-02-28T16:44:34.820Z,10.27
2023-02-28T16:49:56.997Z,11.23
2023-02-28T16:55:19.850Z,10.50
2023-02-28T17:00:42.514Z,11.27
2023-02-28T17:06:05.766Z,15.23
2023-02-28T17:11:28.086Z,13.80
2023-02-28T17:16:50.386Z,13.70
2023-02-28T17:22:12.386Z,14.53
2023-02-28T17:27:34.116Z,12.03
2023-02-28T17:32:57.065Z,19.03
2023-02-28T17:38:20.149Z,17.27
2023-02-28T17:43:41.951Z,13.33
2023-02-28T17:49:04.240Z,13.67
2023-02-28T17:54:26.050Z,13.60
2023-02-28T17:59:47.745Z,14.97
2023-02-28T18:05:10.708Z,14.47
2023-02-28T18:10:34.225Z,19.07
2023-02-28T18:15:56.027Z,18.20
2023-02-28T18:21:17.844Z,21.43
2023-02-28T18:26:40.622Z,19.83
2023-02-28T18:32:02.420Z,20.50
2023-02-28T18:37:24.297Z,17.10
2023-02-28T18:42:45.991Z,16.00
2023-02-28T18:48:08.153Z,21.27
2023-02-28T18:53:29.904Z,26.30
2023-02-28T18:58:52.553Z,21.60
2023-02-28T19:04:15.020Z,22.83
2023-02-28T19:09:36.997Z,26.40
2023-02-28T19:14:58.774Z,22.83
2023-02-28T19:20:20.602Z,20.60
2023-02-28T19:25:42.820Z,17.67
2023-02-28T19:31:11.534Z,21.17
2023-02-28T19:36:34.250Z,21.43
2023-02-28T19:41:56.246Z,23.30
2023-02-28T19:47:18.017Z,18.67
2023-02-28T19:58:06.456Z,21.33
2023-02-28T20:03:28.308Z,21.07
2023-02-28T20:08:50.681Z,26.10
2023-02-28T20:14:17.755Z,26.37
2023-02-28T20:19:39.579Z,19.40
2023-02-28T20:25:01.476Z,23.47
2023-02-28T20:30:24.367Z,23.43
2023-02-28T20:35:46.376Z,22.93
2023-02-28T20:41:08.993Z,20.60
2023-02-28T20:46:31.719Z,23.63
2023-02-28T20:51:53.765Z,20.90
2023-02-28T20:57:15.533Z,22.17
2023-02-28T21:02:37.376Z,24.60
2023-02-28T21:07:59.187Z,23.20
2023-02-28T21:13:21.131Z,20.77
2023-02-28T21:18:43.273Z,19.70
2023-02-28T21:24:06.141Z,19.27
2023-02-28T21:29:27.898Z,20.03
2023-02-28T21:34:50.013Z,21.47
2023-02-28T21:40:12.516Z,23.53
2023-02-28T21:45:34.618Z,19.37
2023-02-28T21:51:01.344Z,22.77
2023-02-28T21:56:25.113Z,19.90
2023-02-28T22:01:50.878Z,20.23
2023-02-28T22:07:12.716Z,21.80
2023-02-28T22:12:34.431Z,19.57
2023-02-28T22:17:56.138Z,19.87
2023-02-28T22:23:17.857Z,19.67
2023-02-28T22:28:39.616Z,21.73
2023-02-28T22:34:08.681Z,21.17
2023-02-28T22:39:30.530Z,22.93
2023-02-28T22:44:52.254Z,22.80
2023-02-28T22:50:14.132Z,19.70
2023-02-28T22:55:35.863Z,22.57
2023-02-28T23:01:08.500Z,21.60
2023-02-28T23:06:42.087Z,23.27
2023-02-28T23:12:03.894Z,20.83
2023-02-28T23:17:25.789Z,24.83
2023-02-28T23:22:50.425Z,20.50
2023-02-28T23:28:12.156Z,23.93
2023-02-28T23:33:34.016Z,22.33
2023-02-28T23:38:56.203Z,24.10
2023-02-28T23:44:18.116Z,23.57
2023-02-28T23:49:40.265Z,21.20
2023-02-28T23:55:02.029Z,22.07
